SWA298 KPDX-KOAK
Flight info
| Callsign | SWA298 |
|---|---|
| Flight time | 1h 22m |
| Altitude | 35000 |
| Route | MINNE5 HISKU Q5 HUPTU SPAMY WNDSR2 |
| Aircraft | B737/M-SDE2E3FGHIRWXY/LB1 |
Departure
| Time | 2026-05-06 17:16 |
|---|---|
| Airport | Portland International Airport (KPDX) |
Arrival
| Time | 2026-05-06 18:39 |
|---|---|
| Airport | San Francisco Bay Oakland International Airport (KOAK) |
| Time | Latitude | Longitude | Altitude | Speed | Heading |
|---|---|---|---|---|---|
| 2026-05-06 16:52 | 45.58902 | -122.58816 | 29 ft | 0 kts | 208° |
| 2026-05-06 17:06 | 45.58906 | -122.58812 | 30 ft | 4 kts | 207° |
| 2026-05-06 17:06 | 45.58931 | -122.58798 | 30 ft | 4 kts | 192° |
| 2026-05-06 17:06 | 45.58957 | -122.58795 | 30 ft | 4 kts | 168° |
| 2026-05-06 17:06 | 45.58979 | -122.58809 | 30 ft | 3 kts | 122° |
| 2026-05-06 17:07 | 45.58980 | -122.58813 | 30 ft | 1 kts | 119° |
| 2026-05-06 17:10 | 45.58977 | -122.58805 | 30 ft | 0 kts | 119° |
| 2026-05-06 17:12 | 45.58968 | -122.58781 | 29 ft | 13 kts | 119° |
| 2026-05-06 17:12 | 45.58957 | -122.58645 | 30 ft | 14 kts | 84° |
| 2026-05-06 17:12 | 45.58950 | -122.58513 | 29 ft | 13 kts | 121° |
| 2026-05-06 17:13 | 45.58902 | -122.58397 | 29 ft | 14 kts | 120° |
| 2026-05-06 17:13 | 45.58849 | -122.58262 | 29 ft | 17 kts | 119° |
| 2026-05-06 17:13 | 45.58791 | -122.58111 | 30 ft | 18 kts | 119° |
| 2026-05-06 17:13 | 45.58725 | -122.57945 | 31 ft | 20 kts | 119° |
| 2026-05-06 17:14 | 45.58653 | -122.57763 | 31 ft | 22 kts | 119° |
| 2026-05-06 17:14 | 45.58576 | -122.57567 | 29 ft | 23 kts | 119° |
| 2026-05-06 17:14 | 45.58493 | -122.57357 | 30 ft | 25 kts | 119° |
| 2026-05-06 17:14 | 45.58410 | -122.57141 | 29 ft | 24 kts | 118° |
| 2026-05-06 17:15 | 45.58351 | -122.56986 | 30 ft | 12 kts | 118° |
| 2026-05-06 17:15 | 45.58354 | -122.56902 | 30 ft | 9 kts | 60° |
| 2026-05-06 17:15 | 45.58408 | -122.56877 | 29 ft | 9 kts | 360° |
| 2026-05-06 17:15 | 45.58453 | -122.56925 | 29 ft | 8 kts | 299° |
| 2026-05-06 17:16 | 45.58528 | -122.57115 | 29 ft | 53 kts | 299° |
| 2026-05-06 17:16 | 45.58834 | -122.57902 | 31 ft | 125 kts | 299° |
| 2026-05-06 17:16 | 45.59306 | -122.59164 | 272 ft | 157 kts | 298° |
| 2026-05-06 17:16 | 45.59803 | -122.60546 | 1064 ft | 158 kts | 296° |
| 2026-05-06 17:17 | 45.60328 | -122.62008 | 1634 ft | 177 kts | 296° |
| 2026-05-06 17:17 | 45.60949 | -122.63708 | 1949 ft | 208 kts | 296° |
| 2026-05-06 17:17 | 45.61570 | -122.65693 | 2244 ft | 228 kts | 284° |
| 2026-05-06 17:17 | 45.61918 | -122.67905 | 2820 ft | 235 kts | 288° |
| 2026-05-06 17:18 | 45.62744 | -122.70008 | 3254 ft | 252 kts | 301° |
| 2026-05-06 17:18 | 45.63708 | -122.72199 | 3935 ft | 261 kts | 300° |
| 2026-05-06 17:18 | 45.64625 | -122.74380 | 5001 ft | 257 kts | 300° |
| 2026-05-06 17:18 | 45.65534 | -122.76590 | 5982 ft | 259 kts | 300° |
| 2026-05-06 17:19 | 45.66446 | -122.78831 | 6912 ft | 262 kts | 300° |
| 2026-05-06 17:19 | 45.67065 | -122.81284 | 7790 ft | 268 kts | 276° |
| 2026-05-06 17:19 | 45.66924 | -122.83957 | 8789 ft | 273 kts | 259° |
| 2026-05-06 17:19 | 45.66405 | -122.86592 | 9803 ft | 277 kts | 255° |
| 2026-05-06 17:20 | 45.65706 | -122.89161 | 10548 ft | 292 kts | 241° |
| 2026-05-06 17:20 | 45.64214 | -122.91330 | 10918 ft | 322 kts | 213° |
| 2026-05-06 17:20 | 45.62057 | -122.92367 | 11731 ft | 334 kts | 191° |
| 2026-05-06 17:20 | 45.59733 | -122.92711 | 12683 ft | 338 kts | 187° |
| 2026-05-06 17:21 | 45.57372 | -122.92951 | 13602 ft | 343 kts | 187° |
| 2026-05-06 17:21 | 45.54977 | -122.93175 | 14475 ft | 347 kts | 187° |
| 2026-05-06 17:21 | 45.52559 | -122.93411 | 15367 ft | 350 kts | 187° |
| 2026-05-06 17:21 | 45.50118 | -122.93665 | 16269 ft | 353 kts | 188° |
| 2026-05-06 17:22 | 45.47653 | -122.93935 | 17158 ft | 357 kts | 188° |
| 2026-05-06 17:22 | 45.45165 | -122.94216 | 18039 ft | 361 kts | 188° |
| 2026-05-06 17:22 | 45.42637 | -122.94508 | 18853 ft | 366 kts | 188° |
| 2026-05-06 17:22 | 45.40082 | -122.94804 | 19566 ft | 372 kts | 188° |
| 2026-05-06 17:23 | 45.37516 | -122.95104 | 20265 ft | 377 kts | 188° |
| 2026-05-06 17:23 | 45.34881 | -122.95410 | 20986 ft | 383 kts | 188° |
| 2026-05-06 17:23 | 45.32209 | -122.95721 | 21710 ft | 388 kts | 188° |
| 2026-05-06 17:23 | 45.29495 | -122.96036 | 22412 ft | 394 kts | 188° |
| 2026-05-06 17:24 | 45.26749 | -122.96354 | 23099 ft | 399 kts | 188° |
| 2026-05-06 17:24 | 45.23956 | -122.96678 | 23787 ft | 404 kts | 189° |
| 2026-05-06 17:24 | 45.21120 | -122.96963 | 24355 ft | 410 kts | 186° |
| 2026-05-06 17:24 | 45.18247 | -122.96984 | 24947 ft | 416 kts | 182° |
| 2026-05-06 17:25 | 45.15329 | -122.96859 | 25482 ft | 422 kts | 181° |
| 2026-05-06 17:25 | 45.12381 | -122.96689 | 26057 ft | 426 kts | 181° |
| 2026-05-06 17:25 | 45.09407 | -122.96521 | 26624 ft | 429 kts | 181° |
| 2026-05-06 17:25 | 45.06411 | -122.96372 | 27170 ft | 433 kts | 181° |
| 2026-05-06 17:26 | 45.03384 | -122.96241 | 27716 ft | 437 kts | 181° |
| 2026-05-06 17:26 | 45.00333 | -122.96123 | 28227 ft | 441 kts | 182° |
| 2026-05-06 17:26 | 44.97247 | -122.96013 | 28764 ft | 445 kts | 182° |
| 2026-05-06 17:26 | 44.94138 | -122.95907 | 29264 ft | 449 kts | 181° |
| 2026-05-06 17:27 | 44.91038 | -122.95802 | 29749 ft | 453 kts | 181° |
| 2026-05-06 17:27 | 44.87836 | -122.95693 | 30295 ft | 455 kts | 181° |
| 2026-05-06 17:27 | 44.84676 | -122.95584 | 30866 ft | 453 kts | 181° |
| 2026-05-06 17:27 | 44.81567 | -122.95476 | 31448 ft | 452 kts | 181° |
| 2026-05-06 17:28 | 44.78423 | -122.95368 | 31953 ft | 453 kts | 181° |
| 2026-05-06 17:28 | 44.75275 | -122.95260 | 32408 ft | 454 kts | 181° |
| 2026-05-06 17:28 | 44.72111 | -122.95152 | 32941 ft | 452 kts | 181° |
| 2026-05-06 17:28 | 44.68972 | -122.95045 | 33539 ft | 450 kts | 181° |
| 2026-05-06 17:29 | 44.65844 | -122.94938 | 34016 ft | 450 kts | 181° |
| 2026-05-06 17:29 | 44.62708 | -122.94832 | 34409 ft | 451 kts | 181° |
| 2026-05-06 17:29 | 44.59580 | -122.94725 | 34874 ft | 449 kts | 181° |
| 2026-05-06 17:29 | 44.56459 | -122.94619 | 35229 ft | 450 kts | 181° |
| 2026-05-06 17:30 | 44.53309 | -122.94514 | 35202 ft | 453 kts | 181° |
| 2026-05-06 17:30 | 44.47071 | -122.94302 | 35202 ft | 441 kts | 182° |
| 2026-05-06 17:31 | 44.40932 | -122.94115 | 35228 ft | 443 kts | 182° |
| 2026-05-06 17:31 | 44.34744 | -122.93932 | 35224 ft | 446 kts | 182° |
| 2026-05-06 17:32 | 44.28524 | -122.93745 | 35208 ft | 447 kts | 182° |
| 2026-05-06 17:32 | 44.22312 | -122.93555 | 35198 ft | 445 kts | 182° |
| 2026-05-06 17:33 | 44.16148 | -122.93365 | 35202 ft | 441 kts | 182° |
| 2026-05-06 17:33 | 44.10060 | -122.93179 | 35217 ft | 438 kts | 182° |
| 2026-05-06 17:34 | 44.03975 | -122.92996 | 35209 ft | 437 kts | 182° |
| 2026-05-06 17:34 | 43.97900 | -122.92813 | 35215 ft | 437 kts | 182° |
| 2026-05-06 17:35 | 43.91818 | -122.92631 | 35219 ft | 438 kts | 182° |
| 2026-05-06 17:35 | 43.85701 | -122.92447 | 35221 ft | 439 kts | 182° |
| 2026-05-06 17:36 | 43.76550 | -122.92172 | 35200 ft | 440 kts | 182° |
| 2026-05-06 17:36 | 43.70427 | -122.91988 | 35199 ft | 440 kts | 182° |
| 2026-05-06 17:37 | 43.64310 | -122.91805 | 35192 ft | 439 kts | 182° |
| 2026-05-06 17:37 | 43.58184 | -122.91623 | 35201 ft | 439 kts | 182° |
| 2026-05-06 17:38 | 43.52123 | -122.91442 | 35201 ft | 438 kts | 182° |
| 2026-05-06 17:38 | 43.46017 | -122.91260 | 35183 ft | 438 kts | 182° |
| 2026-05-06 17:39 | 43.39923 | -122.91080 | 35186 ft | 437 kts | 182° |
| 2026-05-06 17:39 | 43.33843 | -122.90900 | 35194 ft | 437 kts | 182° |
| 2026-05-06 17:40 | 43.28790 | -122.90753 | 35209 ft | 436 kts | 182° |
| 2026-05-06 17:40 | 43.22709 | -122.90572 | 35204 ft | 436 kts | 182° |
| 2026-05-06 17:41 | 43.16623 | -122.90392 | 35197 ft | 437 kts | 182° |
| 2026-05-06 17:41 | 43.10528 | -122.90214 | 35185 ft | 438 kts | 182° |
| 2026-05-06 17:42 | 43.04431 | -122.90035 | 35185 ft | 438 kts | 182° |
| 2026-05-06 17:42 | 42.98368 | -122.89858 | 35178 ft | 438 kts | 182° |
| 2026-05-06 17:43 | 42.92266 | -122.89679 | 35197 ft | 438 kts | 182° |
| 2026-05-06 17:43 | 42.86150 | -122.89501 | 35179 ft | 439 kts | 182° |
| 2026-05-06 17:44 | 42.80075 | -122.89324 | 35178 ft | 439 kts | 181° |
| 2026-05-06 17:44 | 42.73953 | -122.89147 | 35178 ft | 439 kts | 182° |
| 2026-05-06 17:45 | 42.67845 | -122.88970 | 35173 ft | 439 kts | 182° |
| 2026-05-06 17:45 | 42.61732 | -122.88793 | 35176 ft | 439 kts | 182° |
| 2026-05-06 17:46 | 42.55658 | -122.88618 | 35180 ft | 439 kts | 181° |
| 2026-05-06 17:46 | 42.49538 | -122.88442 | 35184 ft | 440 kts | 181° |
| 2026-05-06 17:47 | 42.43408 | -122.88264 | 35187 ft | 440 kts | 181° |
| 2026-05-06 17:47 | 42.37268 | -122.88084 | 35177 ft | 441 kts | 181° |
| 2026-05-06 17:48 | 42.31124 | -122.87905 | 35187 ft | 441 kts | 181° |
| 2026-05-06 17:48 | 42.25008 | -122.87726 | 35182 ft | 442 kts | 181° |
| 2026-05-06 17:49 | 42.18855 | -122.87548 | 35181 ft | 441 kts | 181° |
| 2026-05-06 17:49 | 42.12714 | -122.87368 | 35168 ft | 441 kts | 181° |
| 2026-05-06 17:50 | 42.06556 | -122.87189 | 35174 ft | 442 kts | 181° |
| 2026-05-06 17:50 | 42.00406 | -122.87011 | 35174 ft | 442 kts | 181° |
| 2026-05-06 17:51 | 41.94259 | -122.86834 | 35167 ft | 443 kts | 181° |
| 2026-05-06 17:51 | 41.88135 | -122.86658 | 35177 ft | 443 kts | 181° |
| 2026-05-06 17:52 | 41.81974 | -122.86481 | 35176 ft | 443 kts | 181° |
| 2026-05-06 17:52 | 41.75816 | -122.86303 | 35172 ft | 443 kts | 181° |
| 2026-05-06 17:53 | 41.69657 | -122.86127 | 35179 ft | 442 kts | 181° |
| 2026-05-06 17:53 | 41.63490 | -122.85951 | 35181 ft | 442 kts | 181° |
| 2026-05-06 17:54 | 41.57378 | -122.85776 | 35179 ft | 441 kts | 180° |
| 2026-05-06 17:54 | 41.51241 | -122.85601 | 35183 ft | 441 kts | 180° |
| 2026-05-06 17:55 | 41.45094 | -122.85426 | 35191 ft | 441 kts | 180° |
| 2026-05-06 17:55 | 41.38948 | -122.85252 | 35196 ft | 442 kts | 180° |
| 2026-05-06 17:56 | 41.32799 | -122.85074 | 35192 ft | 443 kts | 180° |
| 2026-05-06 17:56 | 41.26636 | -122.84743 | 35197 ft | 443 kts | 179° |
| 2026-05-06 17:57 | 41.20506 | -122.84345 | 35189 ft | 444 kts | 178° |
| 2026-05-06 17:57 | 41.14337 | -122.83956 | 35178 ft | 444 kts | 178° |
| 2026-05-06 17:58 | 41.08164 | -122.83582 | 35170 ft | 444 kts | 178° |
| 2026-05-06 17:58 | 41.01994 | -122.83215 | 35176 ft | 443 kts | 178° |
| 2026-05-06 17:59 | 40.95826 | -122.82852 | 35172 ft | 443 kts | 178° |
| 2026-05-06 17:59 | 40.89668 | -122.82487 | 35166 ft | 442 kts | 178° |
| 2026-05-06 18:00 | 40.83516 | -122.82123 | 35158 ft | 442 kts | 178° |
| 2026-05-06 18:00 | 40.77357 | -122.81760 | 35168 ft | 443 kts | 178° |
| 2026-05-06 18:01 | 40.71240 | -122.81401 | 35169 ft | 443 kts | 178° |
| 2026-05-06 18:01 | 40.65067 | -122.81038 | 35165 ft | 443 kts | 178° |
| 2026-05-06 18:02 | 40.58896 | -122.80677 | 35165 ft | 444 kts | 178° |
| 2026-05-06 18:02 | 40.52724 | -122.80315 | 35157 ft | 444 kts | 178° |
| 2026-05-06 18:03 | 40.46594 | -122.79957 | 35157 ft | 443 kts | 178° |
| 2026-05-06 18:03 | 40.40427 | -122.79598 | 35170 ft | 443 kts | 178° |
| 2026-05-06 18:04 | 40.34273 | -122.79240 | 35166 ft | 443 kts | 178° |
| 2026-05-06 18:04 | 40.28114 | -122.78882 | 35172 ft | 443 kts | 178° |
| 2026-05-06 18:05 | 40.21966 | -122.78526 | 35159 ft | 443 kts | 178° |
| 2026-05-06 18:05 | 40.15805 | -122.78169 | 35168 ft | 443 kts | 178° |
| 2026-05-06 18:06 | 40.09673 | -122.77815 | 35170 ft | 443 kts | 178° |
| 2026-05-06 18:06 | 40.03508 | -122.77459 | 35156 ft | 443 kts | 177° |
| 2026-05-06 18:07 | 39.97341 | -122.77104 | 35157 ft | 442 kts | 177° |
| 2026-05-06 18:07 | 39.91228 | -122.76753 | 35171 ft | 442 kts | 177° |
| 2026-05-06 18:08 | 39.85067 | -122.76400 | 35178 ft | 442 kts | 177° |
| 2026-05-06 18:08 | 39.78914 | -122.76047 | 35166 ft | 442 kts | 177° |
| 2026-05-06 18:09 | 39.72762 | -122.75696 | 34880 ft | 445 kts | 177° |
| 2026-05-06 18:09 | 39.69664 | -122.75519 | 34372 ft | 445 kts | 177° |
| 2026-05-06 18:09 | 39.66600 | -122.75344 | 33715 ft | 446 kts | 177° |
| 2026-05-06 18:10 | 39.63502 | -122.75168 | 33217 ft | 443 kts | 177° |
| 2026-05-06 18:10 | 39.60432 | -122.74993 | 32730 ft | 440 kts | 177° |
| 2026-05-06 18:10 | 39.57386 | -122.74819 | 32267 ft | 436 kts | 177° |
| 2026-05-06 18:10 | 39.54359 | -122.74648 | 31816 ft | 433 kts | 177° |
| 2026-05-06 18:11 | 39.51361 | -122.74404 | 31362 ft | 430 kts | 172° |
| 2026-05-06 18:11 | 39.48441 | -122.73646 | 30920 ft | 426 kts | 162° |
| 2026-05-06 18:11 | 39.45671 | -122.72333 | 30501 ft | 422 kts | 156° |
| 2026-05-06 18:11 | 39.42967 | -122.70911 | 30018 ft | 419 kts | 156° |
| 2026-05-06 18:12 | 39.40268 | -122.69470 | 29514 ft | 415 kts | 156° |
| 2026-05-06 18:12 | 39.37608 | -122.68067 | 29024 ft | 412 kts | 156° |
| 2026-05-06 18:12 | 39.34998 | -122.66713 | 28576 ft | 407 kts | 157° |
| 2026-05-06 18:12 | 39.32368 | -122.65363 | 28104 ft | 404 kts | 157° |
| 2026-05-06 18:13 | 39.29758 | -122.64028 | 27638 ft | 401 kts | 157° |
| 2026-05-06 18:13 | 39.27177 | -122.62711 | 27180 ft | 398 kts | 157° |
| 2026-05-06 18:13 | 39.24610 | -122.61401 | 26740 ft | 394 kts | 157° |
| 2026-05-06 18:13 | 39.22066 | -122.60104 | 26291 ft | 391 kts | 157° |
| 2026-05-06 18:14 | 39.19503 | -122.58941 | 25817 ft | 390 kts | 168° |
| 2026-05-06 18:14 | 39.16821 | -122.58494 | 25406 ft | 387 kts | 174° |
| 2026-05-06 18:14 | 39.14181 | -122.58181 | 24961 ft | 385 kts | 174° |
| 2026-05-06 18:14 | 39.11519 | -122.57863 | 24499 ft | 383 kts | 174° |
| 2026-05-06 18:15 | 39.08876 | -122.57516 | 24054 ft | 382 kts | 173° |
| 2026-05-06 18:15 | 39.06233 | -122.57149 | 23572 ft | 380 kts | 173° |
| 2026-05-06 18:15 | 39.03612 | -122.56764 | 23074 ft | 377 kts | 171° |
| 2026-05-06 18:15 | 39.01042 | -122.56210 | 22659 ft | 372 kts | 168° |
| 2026-05-06 18:16 | 38.98517 | -122.55564 | 22257 ft | 368 kts | 167° |
| 2026-05-06 18:16 | 38.96018 | -122.54900 | 21867 ft | 365 kts | 167° |
| 2026-05-06 18:16 | 38.93537 | -122.54245 | 21477 ft | 363 kts | 167° |
| 2026-05-06 18:16 | 38.91066 | -122.53605 | 21102 ft | 361 kts | 167° |
| 2026-05-06 18:17 | 38.88601 | -122.52977 | 20719 ft | 359 kts | 167° |
| 2026-05-06 18:17 | 38.86160 | -122.52361 | 20349 ft | 357 kts | 167° |
| 2026-05-06 18:17 | 38.83724 | -122.51751 | 19979 ft | 355 kts | 167° |
| 2026-05-06 18:17 | 38.81340 | -122.51155 | 19609 ft | 353 kts | 167° |
| 2026-05-06 18:18 | 38.78934 | -122.50554 | 19242 ft | 351 kts | 167° |
| 2026-05-06 18:18 | 38.76539 | -122.49957 | 18867 ft | 349 kts | 167° |
| 2026-05-06 18:18 | 38.74156 | -122.49363 | 18485 ft | 348 kts | 167° |
| 2026-05-06 18:18 | 38.71785 | -122.48773 | 18071 ft | 346 kts | 167° |
| 2026-05-06 18:19 | 38.69433 | -122.48188 | 17688 ft | 343 kts | 166° |
| 2026-05-06 18:19 | 38.67092 | -122.47646 | 17304 ft | 340 kts | 169° |
| 2026-05-06 18:19 | 38.64757 | -122.47253 | 16922 ft | 337 kts | 171° |
| 2026-05-06 18:19 | 38.62417 | -122.46913 | 16454 ft | 337 kts | 172° |
| 2026-05-06 18:20 | 38.60099 | -122.46587 | 16088 ft | 333 kts | 172° |
| 2026-05-06 18:20 | 38.57805 | -122.46259 | 15715 ft | 329 kts | 171° |
| 2026-05-06 18:20 | 38.55543 | -122.45929 | 15364 ft | 326 kts | 171° |
| 2026-05-06 18:20 | 38.53325 | -122.45599 | 15025 ft | 324 kts | 171° |
| 2026-05-06 18:21 | 38.51087 | -122.45263 | 14682 ft | 323 kts | 171° |
| 2026-05-06 18:21 | 38.48863 | -122.44927 | 14339 ft | 322 kts | 171° |
| 2026-05-06 18:21 | 38.46638 | -122.44589 | 13992 ft | 321 kts | 171° |
| 2026-05-06 18:21 | 38.44426 | -122.44253 | 13622 ft | 320 kts | 171° |
| 2026-05-06 18:22 | 38.42220 | -122.43918 | 13263 ft | 318 kts | 171° |
| 2026-05-06 18:22 | 38.40028 | -122.43585 | 12915 ft | 316 kts | 172° |
| 2026-05-06 18:22 | 38.37853 | -122.43255 | 12581 ft | 313 kts | 172° |
| 2026-05-06 18:22 | 38.35696 | -122.42927 | 12244 ft | 311 kts | 172° |
| 2026-05-06 18:23 | 38.33553 | -122.42602 | 11906 ft | 309 kts | 172° |
| 2026-05-06 18:23 | 38.31450 | -122.42284 | 11595 ft | 306 kts | 172° |
| 2026-05-06 18:23 | 38.29339 | -122.41964 | 11271 ft | 304 kts | 172° |
| 2026-05-06 18:23 | 38.27240 | -122.41646 | 10956 ft | 303 kts | 172° |
| 2026-05-06 18:24 | 38.25151 | -122.41330 | 10641 ft | 302 kts | 173° |
| 2026-05-06 18:24 | 38.23066 | -122.41013 | 10324 ft | 300 kts | 173° |
| 2026-05-06 18:24 | 38.21000 | -122.40696 | 10002 ft | 297 kts | 173° |
| 2026-05-06 18:24 | 38.18963 | -122.40384 | 9649 ft | 293 kts | 173° |
| 2026-05-06 18:25 | 38.16951 | -122.40075 | 9319 ft | 289 kts | 173° |
| 2026-05-06 18:25 | 38.14995 | -122.39775 | 9007 ft | 285 kts | 172° |
| 2026-05-06 18:25 | 38.13034 | -122.39474 | 8711 ft | 281 kts | 172° |
| 2026-05-06 18:25 | 38.11112 | -122.39180 | 8416 ft | 280 kts | 172° |
| 2026-05-06 18:26 | 38.09181 | -122.38884 | 8106 ft | 279 kts | 172° |
| 2026-05-06 18:26 | 38.07256 | -122.38590 | 7815 ft | 278 kts | 172° |
| 2026-05-06 18:26 | 38.05339 | -122.38297 | 7525 ft | 277 kts | 172° |
| 2026-05-06 18:26 | 38.03420 | -122.38004 | 7231 ft | 276 kts | 172° |
| 2026-05-06 18:27 | 38.01591 | -122.37367 | 6993 ft | 271 kts | 149° |
| 2026-05-06 18:27 | 38.00057 | -122.36027 | 6890 ft | 268 kts | 142° |
| 2026-05-06 18:27 | 37.98562 | -122.34588 | 6748 ft | 272 kts | 141° |
| 2026-05-06 18:27 | 37.97077 | -122.33145 | 6621 ft | 273 kts | 141° |
| 2026-05-06 18:28 | 37.95583 | -122.31698 | 6489 ft | 271 kts | 141° |
| 2026-05-06 18:28 | 37.94081 | -122.30249 | 6352 ft | 270 kts | 141° |
| 2026-05-06 18:28 | 37.92585 | -122.28813 | 6225 ft | 269 kts | 141° |
| 2026-05-06 18:28 | 37.91086 | -122.27379 | 6094 ft | 269 kts | 141° |
| 2026-05-06 18:29 | 37.89593 | -122.25953 | 5970 ft | 269 kts | 141° |
| 2026-05-06 18:29 | 37.88101 | -122.24530 | 5857 ft | 269 kts | 141° |
| 2026-05-06 18:29 | 37.87112 | -122.23587 | 5764 ft | 269 kts | 141° |
| 2026-05-06 18:29 | 37.85620 | -122.22166 | 5645 ft | 269 kts | 141° |
| 2026-05-06 18:30 | 37.84122 | -122.20740 | 5511 ft | 268 kts | 141° |
| 2026-05-06 18:30 | 37.82628 | -122.19321 | 5383 ft | 268 kts | 141° |
| 2026-05-06 18:30 | 37.80659 | -122.17451 | 5212 ft | 267 kts | 141° |
| 2026-05-06 18:30 | 37.79653 | -122.16496 | 5130 ft | 267 kts | 141° |
| 2026-05-06 18:31 | 37.78205 | -122.15030 | 5058 ft | 269 kts | 132° |
| 2026-05-06 18:31 | 37.77103 | -122.13210 | 5075 ft | 262 kts | 124° |
| 2026-05-06 18:31 | 37.75977 | -122.11392 | 5034 ft | 261 kts | 127° |
| 2026-05-06 18:31 | 37.74886 | -122.09630 | 5014 ft | 248 kts | 125° |
| 2026-05-06 18:32 | 37.73855 | -122.07933 | 4995 ft | 239 kts | 125° |
| 2026-05-06 18:32 | 37.72857 | -122.06295 | 4999 ft | 231 kts | 126° |
| 2026-05-06 18:32 | 37.71876 | -122.04683 | 4765 ft | 230 kts | 126° |
| 2026-05-06 18:32 | 37.70906 | -122.03099 | 4565 ft | 226 kts | 126° |
| 2026-05-06 18:33 | 37.69946 | -122.01537 | 4362 ft | 223 kts | 126° |
| 2026-05-06 18:33 | 37.68931 | -122.00086 | 4147 ft | 225 kts | 143° |
| 2026-05-06 18:33 | 37.67462 | -121.99444 | 3951 ft | 227 kts | 179° |
| 2026-05-06 18:33 | 37.65987 | -121.99916 | 3778 ft | 220 kts | 210° |
| 2026-05-06 18:34 | 37.64888 | -122.01200 | 3570 ft | 214 kts | 234° |
| 2026-05-06 18:34 | 37.64072 | -122.02744 | 3359 ft | 207 kts | 236° |
| 2026-05-06 18:34 | 37.63308 | -122.04213 | 3159 ft | 202 kts | 236° |
| 2026-05-06 18:34 | 37.62553 | -122.05660 | 2967 ft | 194 kts | 236° |
| 2026-05-06 18:35 | 37.61855 | -122.07014 | 2794 ft | 187 kts | 241° |
| 2026-05-06 18:35 | 37.61643 | -122.08570 | 2589 ft | 182 kts | 288° |
| 2026-05-06 18:35 | 37.62359 | -122.09797 | 2428 ft | 172 kts | 317° |
| 2026-05-06 18:35 | 37.63150 | -122.10869 | 2190 ft | 163 kts | 310° |
| 2026-05-06 18:36 | 37.63824 | -122.11882 | 1955 ft | 153 kts | 308° |
| 2026-05-06 18:36 | 37.64475 | -122.12867 | 1754 ft | 140 kts | 308° |
| 2026-05-06 18:36 | 37.65058 | -122.13746 | 1614 ft | 129 kts | 309° |
| 2026-05-06 18:36 | 37.65636 | -122.14619 | 1426 ft | 127 kts | 309° |
| 2026-05-06 18:37 | 37.66191 | -122.15457 | 1258 ft | 126 kts | 309° |
| 2026-05-06 18:37 | 37.66759 | -122.16312 | 1091 ft | 128 kts | 309° |
| 2026-05-06 18:37 | 37.67322 | -122.17163 | 906 ft | 124 kts | 308° |
| 2026-05-06 18:37 | 37.67885 | -122.18012 | 737 ft | 128 kts | 309° |
| 2026-05-06 18:38 | 37.68482 | -122.18879 | 556 ft | 136 kts | 307° |
| 2026-05-06 18:38 | 37.69079 | -122.19794 | 386 ft | 135 kts | 308° |
| 2026-05-06 18:38 | 37.69682 | -122.20698 | 174 ft | 133 kts | 306° |
| 2026-05-06 18:38 | 37.70263 | -122.21589 | 25 ft | 130 kts | 307° |
| 2026-05-06 18:39 | 37.70784 | -122.22378 | 7 ft | 101 kts | 310° |
| 2026-05-06 18:39 | 37.71077 | -122.22818 | 9 ft | 41 kts | 310° |
| 2026-05-06 18:39 | 37.71204 | -122.22993 | 8 ft | 23 kts | 317° |
| 2026-05-06 18:40 | 37.71405 | -122.23132 | 8 ft | 12 kts | 344° |
| 2026-05-06 18:40 | 37.71483 | -122.23136 | 8 ft | 11 kts | 27° |
| 2026-05-06 18:40 | 37.71484 | -122.23051 | 8 ft | 11 kts | 130° |
| 2026-05-06 18:40 | 37.71434 | -122.22977 | 8 ft | 11 kts | 131° |
| 2026-05-06 18:41 | 37.71377 | -122.22891 | 8 ft | 15 kts | 130° |
| 2026-05-06 18:41 | 37.71307 | -122.22786 | 8 ft | 15 kts | 130° |
| 2026-05-06 18:41 | 37.71239 | -122.22684 | 8 ft | 15 kts | 130° |
| 2026-05-06 18:41 | 37.71193 | -122.22576 | 9 ft | 14 kts | 88° |
| 2026-05-06 18:42 | 37.71245 | -122.22475 | 10 ft | 14 kts | 49° |
| 2026-05-06 18:42 | 37.71306 | -122.22388 | 9 ft | 13 kts | 48° |
| 2026-05-06 18:42 | 37.71345 | -122.22291 | 8 ft | 13 kts | 89° |
| 2026-05-06 18:42 | 37.71299 | -122.22200 | 8 ft | 13 kts | 130° |
| 2026-05-06 18:43 | 37.71232 | -122.22101 | 8 ft | 17 kts | 130° |
| 2026-05-06 18:43 | 37.71155 | -122.21988 | 8 ft | 17 kts | 130° |
| 2026-05-06 18:43 | 37.71083 | -122.21876 | 8 ft | 16 kts | 132° |
| 2026-05-06 18:43 | 37.71000 | -122.21786 | 9 ft | 15 kts | 131° |
| 2026-05-06 18:44 | 37.70938 | -122.21681 | 9 ft | 7 kts | 127° |
| 2026-05-06 18:44 | 37.70909 | -122.21632 | 8 ft | 7 kts | 127° |
| 2026-05-06 18:44 | 37.70875 | -122.21575 | 8 ft | 10 kts | 123° |
| 2026-05-06 18:44 | 37.70885 | -122.21495 | 9 ft | 10 kts | 48° |
| 2026-05-06 18:45 | 37.70937 | -122.21443 | 8 ft | 10 kts | 31° |
| 2026-05-06 18:45 | 37.70964 | -122.21412 | 8 ft | 5 kts | 79° |
| 2026-05-06 18:45 | 37.70946 | -122.21376 | 8 ft | 5 kts | 128° |
| 2026-05-06 18:45 | 37.70930 | -122.21345 | 8 ft | 3 kts | 125° |
| 2026-05-06 18:46 | 37.70925 | -122.21337 | 8 ft | 0 kts | 125° |